createdAt,value
2019-04-30T00:04:18.000Z,54.788
2019-04-30T00:14:18.000Z,54.698
2019-04-30T00:24:20.000Z,54.726
2019-04-30T00:34:18.000Z,54.762
2019-04-30T00:44:18.000Z,54.641
2019-04-30T00:54:19.000Z,54.659
2019-04-30T01:04:18.000Z,54.592
2019-04-30T01:14:21.000Z,54.513
2019-04-30T01:24:18.000Z,54.359
2019-04-30T01:34:18.000Z,54.336
2019-04-30T01:44:18.000Z,54.6
2019-04-30T01:54:19.000Z,54.436
2019-04-30T02:04:18.000Z,54.293
2019-04-30T02:14:18.000Z,54.311
2019-04-30T02:24:18.000Z,54.295
2019-04-30T02:34:18.000Z,54.165
2019-04-30T02:44:18.000Z,54.283
2019-04-30T02:54:18.000Z,54.161
2019-04-30T03:04:18.000Z,54.018
2019-04-30T03:14:19.000Z,54.015
2019-04-30T03:24:18.000Z,54.066
2019-04-30T03:34:18.000Z,53.935
2019-04-30T03:44:18.000Z,53.92
2019-04-30T03:54:18.000Z,53.909
2019-04-30T04:04:18.000Z,53.756
2019-04-30T04:14:18.000Z,53.647
2019-04-30T04:24:18.000Z,53.721
2019-04-30T04:34:18.000Z,53.525
2019-04-30T04:44:18.000Z,53.535
2019-04-30T04:54:19.000Z,53.522
2019-04-30T05:04:18.000Z,53.372
2019-04-30T05:14:18.000Z,52.919
2019-04-30T05:24:19.000Z,52.885
2019-04-30T05:34:19.000Z,52.702
2019-04-30T05:44:19.000Z,52.637
2019-04-30T05:54:19.000Z,52.528
2019-04-30T06:04:21.000Z,52.441
2019-04-30T06:14:19.000Z,52.377
2019-04-30T06:24:19.000Z,52.314
2019-04-30T06:34:19.000Z,52.346
2019-04-30T06:44:19.000Z,52.412
2019-04-30T06:54:19.000Z,52.391
2019-04-30T07:04:19.000Z,52.408
2019-04-30T07:14:19.000Z,52.727
2019-04-30T07:24:21.000Z,52.776
2019-04-30T07:34:19.000Z,52.597
2019-04-30T07:44:19.000Z,52.951
2019-04-30T07:54:19.000Z,52.901
2019-04-30T08:04:19.000Z,52.754
2019-04-30T08:14:19.000Z,52.313
2019-04-30T08:24:20.000Z,52.316
2019-04-30T08:34:19.000Z,51.8
2019-04-30T08:44:19.000Z,52.751
2019-04-30T08:54:19.000Z,53.57
2019-04-30T09:04:20.000Z,53.094
2019-04-30T09:14:21.000Z,53.174
2019-04-30T09:24:19.000Z,53.312
2019-04-30T09:34:19.000Z,53.146
2019-04-30T09:44:19.000Z,53.243
2019-04-30T09:54:19.000Z,53.253
2019-04-30T10:04:19.000Z,52.768
2019-04-30T10:24:19.000Z,52.619
2019-04-30T10:34:19.000Z,52.522
2019-04-30T10:44:20.000Z,51.676
2019-04-30T10:54:19.000Z,51.932
2019-04-30T11:04:19.000Z,51.272
2019-04-30T11:14:19.000Z,51.056
2019-04-30T11:24:19.000Z,50.864
2019-04-30T11:34:20.000Z,50.627
2019-04-30T11:44:19.000Z,50.431
2019-04-30T11:54:19.000Z,50.344
2019-04-30T12:04:19.000Z,50.193
2019-04-30T12:14:20.000Z,50.163
2019-04-30T12:24:19.000Z,50.053
2019-04-30T12:34:20.000Z,49.987
2019-04-30T12:44:20.000Z,50.053
2019-04-30T12:54:21.000Z,50.041
2019-04-30T13:04:19.000Z,49.999
2019-04-30T13:14:19.000Z,49.902
2019-04-30T13:34:19.000Z,50.03
2019-04-30T13:44:19.000Z,49.854
2019-04-30T13:54:20.000Z,49.834
2019-04-30T14:04:20.000Z,49.854
2019-04-30T14:14:20.000Z,49.843
2019-04-30T14:24:20.000Z,49.691
2019-04-30T14:34:20.000Z,49.819
2019-04-30T14:44:20.000Z,49.666
2019-04-30T14:54:20.000Z,49.611
2019-04-30T15:04:20.000Z,49.383
2019-04-30T15:14:24.000Z,49.545
2019-04-30T15:24:20.000Z,49.584
2019-04-30T15:34:20.000Z,49.564
2019-04-30T15:44:20.000Z,49.465
2019-04-30T15:54:22.000Z,49.54
2019-04-30T16:04:20.000Z,49.557
2019-04-30T16:14:20.000Z,49.579
2019-04-30T16:24:20.000Z,49.544
2019-04-30T16:34:20.000Z,49.534
2019-04-30T16:44:20.000Z,49.392
2019-04-30T16:54:20.000Z,49.339
2019-04-30T17:04:20.000Z,49.251
2019-04-30T17:14:21.000Z,49.229
2019-04-30T17:24:20.000Z,49.207
2019-04-30T17:34:20.000Z,49.248
2019-04-30T17:54:20.000Z,49.372
2019-04-30T18:04:21.000Z,49.422
2019-04-30T18:14:20.000Z,49.431
2019-04-30T18:24:20.000Z,49.449
2019-04-30T18:34:21.000Z,49.51
2019-04-30T18:44:21.000Z,49.51
2019-04-30T18:54:20.000Z,49.432
2019-04-30T19:04:20.000Z,49.41
2019-04-30T19:24:20.000Z,49.318
2019-04-30T19:34:20.000Z,49.39
2019-04-30T19:44:20.000Z,49.378
2019-04-30T19:54:20.000Z,49.321
2019-04-30T20:14:20.000Z,49.294
2019-04-30T20:24:20.000Z,49.345
2019-04-30T20:34:20.000Z,49.28
2019-04-30T20:44:20.000Z,49.331
2019-04-30T20:54:20.000Z,49.316
2019-04-30T21:04:20.000Z,49.326
2019-04-30T21:14:20.000Z,49.375
2019-04-30T21:24:20.000Z,49.352
2019-04-30T21:34:20.000Z,49.37
2019-04-30T21:44:20.000Z,49.42
2019-04-30T21:54:20.000Z,49.429
2019-04-30T22:04:20.000Z,49.437
2019-04-30T22:14:21.000Z,49.475
2019-04-30T22:24:23.000Z,49.42
2019-04-30T22:34:21.000Z,49.438
2019-04-30T22:44:21.000Z,49.392
2019-04-30T22:54:21.000Z,49.444
2019-04-30T23:04:21.000Z,49.515
2019-04-30T23:14:21.000Z,49.513
2019-04-30T23:24:21.000Z,49.51
2019-04-30T23:34:21.000Z,49.495
2019-04-30T23:44:21.000Z,49.546
2019-04-30T23:54:21.000Z,49.543
